createdAt,value
2022-11-03T00:01:37.518Z,24.40
2022-11-03T00:04:05.883Z,23.67
2022-11-03T00:06:34.108Z,25.50
2022-11-03T00:09:06.283Z,16.30
2022-11-03T00:11:34.982Z,18.40
2022-11-03T00:14:03.634Z,15.17
2022-11-03T00:16:31.621Z,21.63
2022-11-03T00:18:59.569Z,22.63
2022-11-03T00:21:27.484Z,21.27
2022-11-03T00:23:55.619Z,17.17
2022-11-03T00:26:26.726Z,20.87
2022-11-03T00:28:56.360Z,20.77
2022-11-03T00:31:25.986Z,16.90
2022-11-03T00:33:55.165Z,19.50
2022-11-03T00:36:24.502Z,13.90
2022-11-03T00:38:52.805Z,14.37
2022-11-03T00:41:22.121Z,17.87
2022-11-03T00:43:52.121Z,15.97
2022-11-03T00:46:21.451Z,12.43
2022-11-03T00:48:49.954Z,16.20
2022-11-03T00:51:20.149Z,15.70
2022-11-03T00:53:49.854Z,14.63
2022-11-03T00:56:19.931Z,13.40
2022-11-03T00:58:48.090Z,15.37
2022-11-03T01:01:19.764Z,12.63
2022-11-03T01:04:04.045Z,19.10
2022-11-03T01:06:46.852Z,12.97
2022-11-03T01:09:15.175Z,15.47
2022-11-03T01:11:46.448Z,16.53
2022-11-03T01:14:16.430Z,12.23
2022-11-03T01:16:45.859Z,13.13
2022-11-03T01:19:13.831Z,10.33
2022-11-03T01:21:41.716Z,13.50
2022-11-03T01:24:09.684Z,15.33
2022-11-03T01:26:37.646Z,15.80
2022-11-03T01:29:06.153Z,13.80
2022-11-03T01:31:34.083Z,9.23
2022-11-03T01:34:03.442Z,13.97
2022-11-03T01:36:31.436Z,17.23
2022-11-03T01:38:59.380Z,11.87
2022-11-03T01:41:29.301Z,14.30
2022-11-03T01:44:31.947Z,10.30
2022-11-03T01:47:14.921Z,14.57
2022-11-03T01:49:47.881Z,13.73
2022-11-03T01:52:20.991Z,11.87
2022-11-03T01:54:53.199Z,11.93
2022-11-03T01:57:25.494Z,11.73
2022-11-03T01:59:58.340Z,15.43
2022-11-03T02:02:27.974Z,9.20
2022-11-03T02:05:00.930Z,10.73
2022-11-03T02:07:34.862Z,10.13
2022-11-03T02:10:07.439Z,15.17
2022-11-03T02:12:36.741Z,9.73
2022-11-03T02:15:09.206Z,16.97
2022-11-03T02:17:38.431Z,7.73
2022-11-03T02:20:11.282Z,9.87
2022-11-03T02:23:04.769Z,8.23
2022-11-03T02:25:46.372Z,14.67
2022-11-03T02:28:16.748Z,13.13
2022-11-03T02:30:49.808Z,11.90
2022-11-03T02:33:33.690Z,11.77
2022-11-03T02:36:08.176Z,13.17
2022-11-03T02:38:40.255Z,12.83
2022-11-03T02:41:10.658Z,9.13
2022-11-03T02:43:39.826Z,11.70
2022-11-03T02:46:08.807Z,15.33
2022-11-03T02:48:37.246Z,11.70
2022-11-03T02:51:05.868Z,13.37
2022-11-03T02:53:37.652Z,10.67
2022-11-03T02:56:12.264Z,9.87
2022-11-03T02:58:44.525Z,9.63
2022-11-03T03:01:18.821Z,14.40
2022-11-03T03:03:51.177Z,12.77
2022-11-03T03:06:24.083Z,15.60
2022-11-03T03:08:55.890Z,14.50
2022-11-03T03:11:38.696Z,11.53
2022-11-03T03:14:11.331Z,13.27
2022-11-03T03:16:46.122Z,13.10
2022-11-03T03:19:22.389Z,18.03
2022-11-03T03:21:54.528Z,14.17
2022-11-03T03:24:31.964Z,13.80
2022-11-03T03:27:03.675Z,16.33
2022-11-03T03:29:38.398Z,11.30
2022-11-03T03:32:10.873Z,17.33
2022-11-03T03:34:42.194Z,12.53
2022-11-03T03:37:12.027Z,21.20
2022-11-03T03:39:42.043Z,15.00
2022-11-03T03:42:13.437Z,11.50
2022-11-03T03:44:43.124Z,13.87
2022-11-03T03:47:15.892Z,22.53
2022-11-03T03:49:44.434Z,13.27
2022-11-03T03:52:12.982Z,17.27
2022-11-03T03:54:40.897Z,17.67
2022-11-03T03:57:15.788Z,17.43
2022-11-03T03:59:43.838Z,14.53
2022-11-03T04:02:12.377Z,15.43
2022-11-03T04:04:40.834Z,15.27
2022-11-03T04:07:27.118Z,17.00
2022-11-03T04:09:55.084Z,21.50
2022-11-03T04:12:42.217Z,19.00
2022-11-03T04:15:31.081Z,15.50
2022-11-03T04:18:17.097Z,21.03
2022-11-03T04:21:02.731Z,26.47
2022-11-03T04:23:30.717Z,25.37
2022-11-03T04:26:00.185Z,19.70
2022-11-03T04:28:30.349Z,17.23
2022-11-03T04:30:59.632Z,14.20
2022-11-03T04:33:27.929Z,15.93
2022-11-03T04:35:58.837Z,17.57
2022-11-03T04:38:28.562Z,15.97
2022-11-03T04:40:58.618Z,18.73
2022-11-03T04:43:35.963Z,16.27
2022-11-03T04:46:04.341Z,22.23
2022-11-03T04:48:34.670Z,17.97
2022-11-03T04:51:10.889Z,22.33
2022-11-03T04:53:39.006Z,19.03
2022-11-03T04:56:16.290Z,20.30
2022-11-03T04:58:47.641Z,24.83
2022-11-03T05:01:23.452Z,18.03
2022-11-03T05:03:54.216Z,18.13
2022-11-03T05:06:23.926Z,24.47
2022-11-03T05:08:56.141Z,14.60
2022-11-03T05:11:30.685Z,26.07
2022-11-03T05:14:02.571Z,20.77
2022-11-03T05:16:31.826Z,24.97
2022-11-03T05:19:00.603Z,19.07
2022-11-03T05:21:29.363Z,25.10
2022-11-03T05:24:02.295Z,20.73
2022-11-03T05:26:33.805Z,26.40
2022-11-03T05:29:05.111Z,23.17
2022-11-03T05:31:36.351Z,25.13
2022-11-03T05:34:27.099Z,24.73
2022-11-03T05:36:55.179Z,24.23
2022-11-03T05:39:32.613Z,23.53
2022-11-03T05:42:01.490Z,23.37
2022-11-03T05:44:36.843Z,23.40
2022-11-03T05:47:10.190Z,27.40
2022-11-03T05:49:38.227Z,22.10
2022-11-03T05:52:07.286Z,22.37
2022-11-03T05:54:36.172Z,30.87
2022-11-03T05:57:09.476Z,21.70
2022-11-03T05:59:39.002Z,33.60
2022-11-03T06:02:23.168Z,24.33
2022-11-03T06:04:51.137Z,27.47
2022-11-03T06:07:25.601Z,28.50
2022-11-03T06:09:54.238Z,30.37
2022-11-03T06:12:23.634Z,26.57
2022-11-03T06:14:53.441Z,25.70
2022-11-03T06:17:24.648Z,24.43
2022-11-03T06:19:55.198Z,32.00
2022-11-03T06:22:25.632Z,24.60
2022-11-03T06:24:56.488Z,26.53
2022-11-03T06:27:25.450Z,28.57
2022-11-03T06:29:58.994Z,24.67
2022-11-03T06:32:27.858Z,25.97
2022-11-03T06:34:58.614Z,24.40
2022-11-03T06:37:29.061Z,21.73
2022-11-03T06:40:02.731Z,25.43
2022-11-03T06:42:36.152Z,32.17
2022-11-03T06:45:15.706Z,23.30
2022-11-03T06:47:43.713Z,26.73
2022-11-03T06:50:23.154Z,27.60
2022-11-03T06:52:51.442Z,23.10
2022-11-03T06:55:27.509Z,33.53
2022-11-03T06:57:59.730Z,35.27
2022-11-03T07:00:35.698Z,24.77
2022-11-03T07:03:10.025Z,23.13
2022-11-03T07:05:39.005Z,32.17
2022-11-03T07:08:20.639Z,34.00
2022-11-03T07:10:48.948Z,23.80
2022-11-03T07:13:20.683Z,26.70
2022-11-03T07:15:50.173Z,27.57
2022-11-03T07:18:23.490Z,25.83
2022-11-03T07:20:52.913Z,28.60
2022-11-03T07:23:24.558Z,24.40
2022-11-03T07:25:54.564Z,24.57
2022-11-03T07:28:25.655Z,27.37
2022-11-03T07:30:54.960Z,29.37
2022-11-03T07:33:26.518Z,31.33
2022-11-03T07:38:50.256Z,26.13
2022-11-03T07:41:21.688Z,31.20
2022-11-03T07:43:54.827Z,22.53
2022-11-03T07:46:25.486Z,22.13
2022-11-03T07:48:56.594Z,26.57
2022-11-03T07:51:27.197Z,17.07
2022-11-03T07:53:57.917Z,25.13
2022-11-03T07:56:28.591Z,19.13
2022-11-03T07:59:02.330Z,25.27
2022-11-03T08:01:34.047Z,18.00
2022-11-03T08:04:05.284Z,18.73
2022-11-03T08:06:33.869Z,22.83
2022-11-03T08:09:01.911Z,22.97
2022-11-03T08:11:30.139Z,17.67
2022-11-03T08:13:58.688Z,17.33
2022-11-03T08:16:26.970Z,19.10
2022-11-03T08:18:56.263Z,16.70
2022-11-03T08:21:24.340Z,17.43
2022-11-03T08:23:52.420Z,16.27
2022-11-03T08:26:20.618Z,16.23
2022-11-03T08:28:48.637Z,18.37
2022-11-03T08:31:16.787Z,15.03
2022-11-03T08:33:44.709Z,15.10
2022-11-03T08:36:14.132Z,13.77
2022-11-03T08:38:42.065Z,14.73
2022-11-03T08:41:10.028Z,16.43
2022-11-03T08:43:38.109Z,13.83
2022-11-03T08:46:16.672Z,14.13
2022-11-03T08:48:46.443Z,10.80
2022-11-03T08:51:16.857Z,12.93
2022-11-03T08:53:45.190Z,14.90
2022-11-03T08:56:15.045Z,10.67
2022-11-03T08:58:44.409Z,8.47
2022-11-03T09:01:12.644Z,9.93
2022-11-03T09:03:41.189Z,15.10
2022-11-03T09:06:11.406Z,11.30
2022-11-03T09:11:28.595Z,8.43
2022-11-03T09:13:57.789Z,9.67
2022-11-03T09:16:26.593Z,9.93
2022-11-03T09:18:54.551Z,8.33
2022-11-03T09:21:22.617Z,13.50
2022-11-03T09:23:51.869Z,12.17
2022-11-03T09:26:20.197Z,9.47
2022-11-03T09:28:49.331Z,8.77
2022-11-03T09:31:17.383Z,8.67
2022-11-03T09:33:45.383Z,11.57
2022-11-03T09:36:13.366Z,6.67
2022-11-03T09:38:43.085Z,6.60
2022-11-03T09:41:26.441Z,8.37
2022-11-03T09:44:03.837Z,9.13
2022-11-03T09:46:32.771Z,9.23
2022-11-03T09:49:00.704Z,10.03
2022-11-03T09:51:29.688Z,12.17
2022-11-03T09:53:59.976Z,4.37
2022-11-03T09:56:29.405Z,7.77
2022-11-03T09:58:57.503Z,8.97
2022-11-03T10:01:25.798Z,8.97
2022-11-03T10:03:57.379Z,12.23
2022-11-03T10:06:25.331Z,8.77
2022-11-03T10:08:53.558Z,8.83
2022-11-03T10:11:21.491Z,8.23
2022-11-03T10:13:54.063Z,11.80
2022-11-03T10:16:24.323Z,10.83
2022-11-03T10:18:53.061Z,6.87
2022-11-03T10:21:24.970Z,7.77
2022-11-03T10:23:52.890Z,8.87
2022-11-03T10:26:21.952Z,10.00
2022-11-03T10:29:01.565Z,15.03
2022-11-03T10:31:34.962Z,12.03
2022-11-03T10:34:03.573Z,6.77
2022-11-03T10:36:32.972Z,9.10
2022-11-03T10:39:21.471Z,11.33
2022-11-03T10:41:57.543Z,6.70
2022-11-03T10:44:27.947Z,9.03
2022-11-03T10:47:00.568Z,11.63
2022-11-03T10:49:30.329Z,12.27
2022-11-03T10:52:10.585Z,11.90
2022-11-03T10:54:38.693Z,7.70
2022-11-03T10:57:06.893Z,8.33
2022-11-03T10:59:39.150Z,11.87
2022-11-03T11:02:16.948Z,8.43
2022-11-03T11:04:45.429Z,7.83
2022-11-03T11:07:23.345Z,6.83
2022-11-03T11:09:51.465Z,9.17
2022-11-03T11:12:22.917Z,8.57
2022-11-03T11:14:57.857Z,11.83
2022-11-03T11:17:43.867Z,6.37
2022-11-03T11:20:31.529Z,7.40
2022-11-03T11:23:33.104Z,12.53
2022-11-03T11:26:14.287Z,8.83
2022-11-03T11:28:43.549Z,9.03
2022-11-03T11:31:33.216Z,6.47
2022-11-03T11:34:38.771Z,11.77
2022-11-03T11:37:35.861Z,10.80
2022-11-03T11:40:11.327Z,10.67
2022-11-03T11:43:18.681Z,11.57
2022-11-03T11:46:20.313Z,15.23
2022-11-03T11:49:02.869Z,8.27
2022-11-03T11:51:34.618Z,7.63
2022-11-03T11:54:17.413Z,7.20
2022-11-03T11:56:47.671Z,9.43
2022-11-03T11:59:24.365Z,10.83
2022-11-03T12:01:54.971Z,8.50
2022-11-03T12:04:27.638Z,10.80
2022-11-03T12:06:56.494Z,5.73
2022-11-03T12:09:27.625Z,8.83
2022-11-03T12:11:59.413Z,14.03
2022-11-03T12:14:35.303Z,6.17
2022-11-03T12:17:35.925Z,7.87
2022-11-03T12:20:48.666Z,8.70
2022-11-03T12:23:39.910Z,8.70
2022-11-03T12:26:14.948Z,8.37
2022-11-03T12:28:43.012Z,10.33
2022-11-03T12:31:11.064Z,9.97
2022-11-03T12:33:39.129Z,5.80
2022-11-03T12:36:09.712Z,9.53
2022-11-03T12:38:38.145Z,7.77
2022-11-03T12:41:20.103Z,7.13
2022-11-03T12:43:49.467Z,12.70
2022-11-03T12:46:17.933Z,12.97
2022-11-03T12:48:47.257Z,7.77
2022-11-03T12:51:17.865Z,8.43
2022-11-03T12:53:46.465Z,10.30
2022-11-03T12:56:15.823Z,6.70
2022-11-03T12:58:44.029Z,6.80
2022-11-03T13:01:12.352Z,7.57
2022-11-03T13:03:40.480Z,5.80
2022-11-03T13:06:10.294Z,7.83
2022-11-03T13:08:39.824Z,9.90
2022-11-03T13:11:28.915Z,8.77
2022-11-03T13:13:57.098Z,7.93
2022-11-03T13:16:25.158Z,7.47
2022-11-03T13:18:53.384Z,8.17
2022-11-03T13:21:21.407Z,8.90
2022-11-03T13:23:51.429Z,14.03
2022-11-03T13:26:19.360Z,10.00
2022-11-03T13:28:47.565Z,6.40
2022-11-03T13:31:15.562Z,8.40
2022-11-03T13:33:45.988Z,6.90
2022-11-03T13:36:14.110Z,7.80
2022-11-03T13:38:42.102Z,8.20
2022-11-03T13:41:11.367Z,4.80
2022-11-03T13:43:39.305Z,7.40
2022-11-03T13:46:07.568Z,8.07
2022-11-03T13:51:23.458Z,5.83
2022-11-03T13:59:28.947Z,4.63
2022-11-03T14:04:45.525Z,8.73
2022-11-03T14:07:13.583Z,9.87
2022-11-03T14:09:42.121Z,5.67
2022-11-03T14:12:28.995Z,7.30
2022-11-03T14:14:56.914Z,9.07
2022-11-03T14:17:25.292Z,10.70
2022-11-03T14:19:56.534Z,9.87
2022-11-03T14:22:26.145Z,10.47
2022-11-03T14:24:54.453Z,7.73
2022-11-03T14:27:23.859Z,17.00
2022-11-03T14:29:52.006Z,10.00
2022-11-03T14:32:20.985Z,10.47
2022-11-03T14:34:49.118Z,10.20
2022-11-03T14:37:17.609Z,12.33
2022-11-03T14:39:45.937Z,11.57
2022-11-03T14:42:15.747Z,12.50
2022-11-03T14:44:46.931Z,7.27
2022-11-03T14:47:17.574Z,11.20
2022-11-03T14:49:46.388Z,10.07
2022-11-03T14:52:15.676Z,8.80
2022-11-03T14:54:44.193Z,10.27
2022-11-03T14:57:12.137Z,12.63
2022-11-03T14:59:40.057Z,8.07
2022-11-03T15:02:09.433Z,13.07
2022-11-03T15:04:37.379Z,11.63
2022-11-03T15:07:05.277Z,8.47
2022-11-03T15:09:33.166Z,11.83
2022-11-03T15:12:01.103Z,12.70
2022-11-03T15:14:29.804Z,10.63
2022-11-03T15:16:57.722Z,14.73
2022-11-03T15:19:27.007Z,16.63
2022-11-03T15:21:54.904Z,9.87
2022-11-03T15:27:10.843Z,13.50
2022-11-03T15:29:38.959Z,16.63
2022-11-03T15:32:07.693Z,17.53
2022-11-03T15:34:37.059Z,16.73
2022-11-03T15:37:05.019Z,24.20
2022-11-03T15:39:32.929Z,25.23
2022-11-03T15:42:00.874Z,22.00
2022-11-03T15:44:28.892Z,28.00
2022-11-03T15:46:56.863Z,21.87
2022-11-03T15:49:24.828Z,28.33
2022-11-03T15:51:54.162Z,16.40
2022-11-03T15:54:22.152Z,24.90
2022-11-03T15:56:50.250Z,26.50
2022-11-03T15:59:19.053Z,22.33
2022-11-03T16:01:47.194Z,26.10
2022-11-03T16:04:16.730Z,23.77
2022-11-03T16:09:34.232Z,30.97
2022-11-03T16:12:02.851Z,46.03
2022-11-03T16:14:31.336Z,47.80
2022-11-03T16:17:00.737Z,47.80
2022-11-03T16:19:31.101Z,52.13
2022-11-03T16:21:59.183Z,44.57
2022-11-03T16:24:33.512Z,34.53
2022-11-03T16:27:05.083Z,45.17
2022-11-03T16:29:35.266Z,65.37
2022-11-03T16:32:05.241Z,69.43
2022-11-03T16:34:33.184Z,59.03
2022-11-03T16:37:01.705Z,64.30
2022-11-03T16:39:30.087Z,50.10
2022-11-03T16:41:58.127Z,62.47
2022-11-03T16:44:27.606Z,54.73
2022-11-03T16:46:55.578Z,61.80
2022-11-03T16:49:23.794Z,52.93
2022-11-03T16:51:52.097Z,67.03
2022-11-03T16:54:20.061Z,61.67
2022-11-03T16:56:53.462Z,66.80
2022-11-03T16:59:24.355Z,72.20
2022-11-03T17:01:53.849Z,69.37
2022-11-03T17:04:21.968Z,59.90
2022-11-03T17:06:49.979Z,66.40
2022-11-03T17:09:17.902Z,77.77
2022-11-03T17:11:45.908Z,76.67
2022-11-03T17:14:14.403Z,77.37
2022-11-03T17:16:45.628Z,75.43
2022-11-03T17:19:15.264Z,75.23
2022-11-03T17:21:43.351Z,74.93
2022-11-03T17:24:13.238Z,66.43
2022-11-03T17:26:52.281Z,70.37
2022-11-03T17:29:22.639Z,66.50
2022-11-03T17:31:51.226Z,73.90
2022-11-03T17:34:24.228Z,58.03
2022-11-03T17:36:53.322Z,62.90
2022-11-03T17:39:28.498Z,56.00
2022-11-03T17:42:11.789Z,61.13
2022-11-03T17:44:39.769Z,64.27
2022-11-03T17:47:07.855Z,61.07
2022-11-03T17:49:37.181Z,62.10
2022-11-03T17:52:05.607Z,56.77
2022-11-03T17:54:34.076Z,59.03
2022-11-03T17:57:02.943Z,62.90
2022-11-03T17:59:31.073Z,62.17
2022-11-03T18:01:59.183Z,63.83
2022-11-03T18:04:27.268Z,92.93
2022-11-03T18:06:56.571Z,101.20
2022-11-03T18:09:24.710Z,86.60
2022-11-03T18:12:11.161Z,78.83
2022-11-03T18:14:39.196Z,90.80
2022-11-03T18:17:07.258Z,97.83
2022-11-03T18:19:35.385Z,102.97
2022-11-03T18:22:05.360Z,112.10
2022-11-03T18:24:33.342Z,126.47
2022-11-03T18:27:01.314Z,113.83
2022-11-03T18:29:29.266Z,117.77
2022-11-03T18:31:58.705Z,102.80
2022-11-03T18:34:28.150Z,108.53
2022-11-03T18:36:56.219Z,112.73
2022-11-03T18:39:28.734Z,115.63
2022-11-03T18:41:56.700Z,140.83
2022-11-03T18:44:28.261Z,149.70
2022-11-03T18:46:57.123Z,190.30
2022-11-03T18:49:27.158Z,207.53
2022-11-03T18:52:02.837Z,230.23
2022-11-03T18:54:35.217Z,240.13
2022-11-03T18:57:04.122Z,220.27
2022-11-03T18:59:35.023Z,163.33
2022-11-03T19:02:03.269Z,144.60
2022-11-03T19:04:32.149Z,126.80
2022-11-03T19:07:00.492Z,104.50
2022-11-03T19:09:28.692Z,99.50
2022-11-03T19:11:58.728Z,88.73
2022-11-03T19:14:29.669Z,88.57
2022-11-03T19:19:46.437Z,52.10
2022-11-03T19:22:17.065Z,64.53
2022-11-03T19:24:45.810Z,56.27
2022-11-03T19:27:18.520Z,55.30
2022-11-03T19:29:48.275Z,46.77
2022-11-03T19:32:19.527Z,40.90
2022-11-03T19:34:49.366Z,47.20
2022-11-03T19:37:17.367Z,46.03
2022-11-03T19:39:45.417Z,44.43
2022-11-03T19:42:28.903Z,59.57
2022-11-03T19:44:58.129Z,46.40
2022-11-03T19:47:32.490Z,49.83
2022-11-03T19:50:02.416Z,35.57
2022-11-03T19:52:32.699Z,41.97
2022-11-03T19:55:05.419Z,38.60
2022-11-03T19:57:34.799Z,35.27
2022-11-03T20:00:03.381Z,38.37
2022-11-03T20:02:36.100Z,37.10
2022-11-03T20:05:04.397Z,34.47
2022-11-03T20:07:32.401Z,32.93
2022-11-03T20:10:02.451Z,42.77
2022-11-03T20:12:31.588Z,33.90
2022-11-03T20:15:01.399Z,34.73
2022-11-03T20:17:29.339Z,36.73
2022-11-03T20:19:57.353Z,32.70
2022-11-03T20:22:29.970Z,38.00
2022-11-03T20:25:01.318Z,35.97
2022-11-03T20:27:29.357Z,37.60
2022-11-03T20:29:57.496Z,31.40
2022-11-03T20:32:26.814Z,35.17
2022-11-03T20:34:55.142Z,33.17
2022-11-03T20:37:23.137Z,33.00
2022-11-03T20:39:51.114Z,35.23
2022-11-03T20:42:22.356Z,35.80
2022-11-03T20:44:50.416Z,41.00
2022-11-03T20:47:19.410Z,45.63
2022-11-03T20:49:48.779Z,61.03
2022-11-03T20:52:17.382Z,76.43
2022-11-03T20:54:45.560Z,70.23
2022-11-03T20:57:14.397Z,62.87
2022-11-03T20:59:42.579Z,57.53
2022-11-03T21:02:14.447Z,56.07
2022-11-03T21:04:43.946Z,63.80
2022-11-03T21:07:14.197Z,46.63
2022-11-03T21:09:42.361Z,52.53
2022-11-03T21:12:14.475Z,55.23
2022-11-03T21:15:05.016Z,41.43
2022-11-03T21:17:50.470Z,33.20
2022-11-03T21:20:18.472Z,32.53
2022-11-03T21:22:54.849Z,34.20
2022-11-03T21:25:24.963Z,27.00
2022-11-03T21:27:54.460Z,30.97
2022-11-03T21:30:23.432Z,29.80
2022-11-03T21:32:51.454Z,30.00
2022-11-03T21:35:20.917Z,33.63
2022-11-03T21:37:50.710Z,33.97
2022-11-03T21:40:19.232Z,28.20
2022-11-03T21:43:04.988Z,35.37
2022-11-03T21:45:33.010Z,29.73
2022-11-03T21:48:19.642Z,30.00
2022-11-03T21:50:48.397Z,32.57
2022-11-03T21:53:18.026Z,26.57
2022-11-03T21:55:48.441Z,30.73
2022-11-03T21:58:16.705Z,27.27
2022-11-03T22:00:47.055Z,34.27
2022-11-03T22:03:15.323Z,27.67
2022-11-03T22:05:43.697Z,34.00
2022-11-03T22:08:11.863Z,27.43
2022-11-03T22:10:41.687Z,28.53
2022-11-03T22:13:10.505Z,27.30
2022-11-03T22:15:56.256Z,28.47
2022-11-03T22:18:24.660Z,25.47
2022-11-03T22:21:10.202Z,31.07
2022-11-03T22:24:10.238Z,30.27
2022-11-03T22:26:59.778Z,24.97
2022-11-03T22:29:45.179Z,26.00
2022-11-03T22:32:16.658Z,26.00
2022-11-03T22:35:02.109Z,27.03
2022-11-03T22:40:14.663Z,23.50
2022-11-03T22:43:03.844Z,28.83
2022-11-03T22:45:49.510Z,26.57
2022-11-03T22:48:17.681Z,27.60
2022-11-03T22:50:46.142Z,25.50
2022-11-03T22:53:31.417Z,27.23
2022-11-03T22:56:01.472Z,27.23
2022-11-03T22:58:31.003Z,24.83
2022-11-03T23:01:03.536Z,27.43
2022-11-03T23:03:32.754Z,25.67
2022-11-03T23:06:02.780Z,25.17
2022-11-03T23:08:32.465Z,24.27
2022-11-03T23:11:09.039Z,26.30
2022-11-03T23:13:38.336Z,30.67
2022-11-03T23:16:14.688Z,30.40
2022-11-03T23:19:00.457Z,30.33
2022-11-03T23:21:29.185Z,23.63
2022-11-03T23:24:15.404Z,32.53
2022-11-03T23:26:44.353Z,23.47
2022-11-03T23:29:15.192Z,26.97
2022-11-03T23:31:44.588Z,25.63
2022-11-03T23:34:14.133Z,22.50
2022-11-03T23:36:42.187Z,19.23
2022-11-03T23:39:15.024Z,24.23
2022-11-03T23:41:43.849Z,27.37
2022-11-03T23:44:13.361Z,23.33
2022-11-03T23:46:59.206Z,27.30
2022-11-03T23:49:27.597Z,24.20
2022-11-03T23:51:55.971Z,25.37
2022-11-03T23:54:24.093Z,23.10
2022-11-03T23:57:15.397Z,21.37
